Time;durP1;ratioP1;P1;durP2;ratioP2;P2;SDS_P1;SDS_P2;PMS_P1;PMS_P2;Temp;Humidity;BMP_temperature;BMP_pressure;BME280_temperature;BME280_humidity;BME280_pressure;Samples;Min_cycle;Max_cycle;Signal;HPM_P1;HPM_P2
2022/04/25 00:00:04;;;;;;;3.30;1.65;;;;;;;;;;4969322;28;20046;-71
2022/04/25 00:02:30;;;;;;;6.00;1.70;;;;;;;;;;4971537;28;20137;-69
2022/04/25 00:04:57;;;;;;;3.22;1.67;;;;;;;;;;4971310;28;20054;-70
2022/04/25 00:07:23;;;;;;;3.97;2.05;;;;;;;;;;4971414;28;20046;-70
2022/04/25 00:09:49;;;;;;;5.22;2.28;;;;;;;;;;4970715;28;20046;-70
2022/04/25 00:12:15;;;;;;;4.97;1.75;;;;;;;;;;4970945;28;20170;-70
2022/04/25 00:14:42;;;;;;;4.22;1.83;;;;;;;;;;4971016;28;20043;-70
2022/04/25 00:17:08;;;;;;;2.55;1.75;;;;;;;;;;4970957;28;20433;-70
2022/04/25 00:19:35;;;;;;;2.55;1.60;;;;;;;;;;4971213;28;20379;-69
2022/04/25 00:22:02;;;;;;;3.28;2.00;;;;;;;;;;4970766;28;20131;-69
2022/04/25 00:24:28;;;;;;;3.80;2.03;;;;;;;;;;4971141;28;20050;-69
2022/04/25 00:26:54;;;;;;;4.07;1.67;;;;;;;;;;4970704;28;20515;-70
2022/04/25 00:29:20;;;;;;;2.65;1.70;;;;;;;;;;4970358;28;20105;-69
2022/04/25 00:31:46;;;;;;;3.83;1.90;;;;;;;;;;4970130;28;20051;-69
2022/04/25 00:34:12;;;;;;;3.65;2.15;;;;;;;;;;4969336;28;20047;-69
2022/04/25 00:36:38;;;;;;;4.35;2.08;;;;;;;;;;4969485;28;20417;-70
2022/04/25 00:39:04;;;;;;;4.07;2.20;;;;;;;;;;4969902;28;20401;-70
2022/04/25 00:41:30;;;;;;;3.20;1.80;;;;;;;;;;4969284;28;20535;-70
2022/04/25 00:43:57;;;;;;;3.58;1.90;;;;;;;;;;4970756;28;20042;-69
2022/04/25 00:46:27;;;;;;;6.55;1.80;;;;;;;;;;4970336;28;20408;-69
2022/04/25 00:48:53;;;;;;;3.40;1.90;;;;;;;;;;4970586;28;20411;-69
2022/04/25 00:51:19;;;;;;;3.92;1.65;;;;;;;;;;4969329;28;20046;-69
2022/04/25 00:53:46;;;;;;;7.55;1.65;;;;;;;;;;4970264;28;20054;-70
2022/04/25 00:56:14;;;;;;;3.25;1.75;;;;;;;;;;4969870;28;20057;-69
2022/04/25 00:58:40;;;;;;;3.20;1.90;;;;;;;;;;4969474;28;20059;-69
2022/04/25 01:01:07;;;;;;;3.22;1.80;;;;;;;;;;4970111;28;20069;-69
2022/04/25 01:03:33;;;;;;;4.22;1.77;;;;;;;;;;4970369;28;20046;-70
2022/04/25 01:05:59;;;;;;;4.57;2.03;;;;;;;;;;4970254;28;20534;-70
2022/04/25 01:08:26;;;;;;;4.18;1.88;;;;;;;;;;4970372;28;20047;-70
2022/04/25 01:10:52;;;;;;;2.88;1.85;;;;;;;;;;4970090;28;20046;-70
2022/04/25 01:13:18;;;;;;;3.83;2.00;;;;;;;;;;4969108;28;20051;-70
2022/04/25 01:15:44;;;;;;;3.97;1.90;;;;;;;;;;4970112;28;20051;-71
2022/04/25 01:18:10;;;;;;;4.70;1.92;;;;;;;;;;4969823;28;20078;-69
2022/04/25 01:20:37;;;;;;;4.68;2.63;;;;;;;;;;4969625;28;20074;-69
2022/04/25 01:28:38;;;;;;;3.00;2.03;;;;;;;;;;4969453;28;20054;-70
2022/04/25 01:31:04;;;;;;;2.33;1.88;;;;;;;;;;4969898;28;20054;-70
2022/04/25 01:33:31;;;;;;;3.33;2.10;;;;;;;;;;4969604;28;20054;-70
2022/04/25 01:35:57;;;;;;;6.65;1.83;;;;;;;;;;4969533;28;20099;-70
2022/04/25 01:38:23;;;;;;;4.25;2.10;;;;;;;;;;4969415;28;20146;-69
2022/04/25 01:40:49;;;;;;;3.08;1.67;;;;;;;;;;4969466;28;20101;-70
2022/04/25 01:43:15;;;;;;;4.60;2.25;;;;;;;;;;4969549;28;20153;-70
2022/04/25 01:45:41;;;;;;;4.20;1.70;;;;;;;;;;4969769;28;20190;-70
2022/04/25 01:48:07;;;;;;;4.78;2.15;;;;;;;;;;4969845;28;20481;-70
2022/04/25 01:50:33;;;;;;;2.65;1.73;;;;;;;;;;4969466;28;20468;-70
2022/04/25 01:52:59;;;;;;;3.65;1.92;;;;;;;;;;4968993;28;20046;-70
2022/04/25 01:55:25;;;;;;;2.65;1.80;;;;;;;;;;4968221;28;20038;-70
2022/04/25 01:57:51;;;;;;;3.78;2.20;;;;;;;;;;4968191;28;20069;-70
2022/04/25 02:00:17;;;;;;;3.03;2.35;;;;;;;;;;4969511;28;20061;-70
2022/04/25 02:02:43;;;;;;;3.30;1.88;;;;;;;;;;4969655;28;20050;-70
2022/04/25 02:05:10;;;;;;;4.05;1.83;;;;;;;;;;4973270;28;20046;-69
2022/04/25 02:07:36;;;;;;;3.95;1.88;;;;;;;;;;4973419;28;20042;-70
2022/04/25 02:10:02;;;;;;;5.35;2.50;;;;;;;;;;4971897;28;20105;-69
2022/04/25 02:12:28;;;;;;;3.00;1.85;;;;;;;;;;4973206;28;20046;-71
2022/04/25 02:14:54;;;;;;;4.93;1.85;;;;;;;;;;4971302;28;20138;-70
2022/04/25 02:17:20;;;;;;;4.60;2.00;;;;;;;;;;4972938;28;20047;-70
2022/04/25 02:19:46;;;;;;;4.97;2.20;;;;;;;;;;4973124;28;20417;-69
2022/04/25 02:22:13;;;;;;;5.72;2.00;;;;;;;;;;4972833;28;20411;-70
2022/04/25 02:24:39;;;;;;;4.28;1.88;;;;;;;;;;4972317;28;20504;-70
2022/04/25 02:27:06;;;;;;;3.95;2.10;;;;;;;;;;4972775;28;20043;-70
2022/04/25 02:29:33;;;;;;;4.13;2.08;;;;;;;;;;4973094;28;20047;-70
2022/04/25 02:32:03;;;;;;;5.80;2.38;;;;;;;;;;4971361;28;20066;-70
2022/04/25 02:34:31;;;;;;;7.78;2.65;;;;;;;;;;4972881;28;20047;-71
2022/04/25 02:36:57;;;;;;;2.45;1.75;;;;;;;;;;4972311;28;20126;-71
2022/04/25 02:39:24;;;;;;;3.58;2.00;;;;;;;;;;4972204;28;20047;-70
2022/04/25 02:41:50;;;;;;;6.25;2.25;;;;;;;;;;4972672;28;20055;-70
2022/04/25 02:44:17;;;;;;;5.00;2.30;;;;;;;;;;4972410;28;20078;-70
2022/04/25 02:46:43;;;;;;;6.50;2.15;;;;;;;;;;4972549;28;20412;-70
2022/04/25 02:49:09;;;;;;;4.22;2.10;;;;;;;;;;4972403;28;20038;-71
2022/04/25 02:51:35;;;;;;;4.90;2.13;;;;;;;;;;4971981;28;20391;-70
2022/04/25 02:54:01;;;;;;;3.72;1.83;;;;;;;;;;4972225;28;20126;-71
2022/04/25 02:56:27;;;;;;;3.80;2.10;;;;;;;;;;4972178;28;20089;-70
2022/04/25 02:58:53;;;;;;;9.10;2.53;;;;;;;;;;4972269;28;20043;-69
2022/04/25 03:01:19;;;;;;;4.30;2.05;;;;;;;;;;4971532;28;20050;-68
2022/04/25 03:03:45;;;;;;;2.72;1.80;;;;;;;;;;4972147;28;20043;-69
2022/04/25 03:06:11;;;;;;;5.75;1.98;;;;;;;;;;4972065;28;20055;-68
2022/04/25 03:08:38;;;;;;;4.60;2.42;;;;;;;;;;4971244;28;20065;-68
2022/04/25 03:11:05;;;;;;;3.42;2.05;;;;;;;;;;4972255;28;20070;-69
2022/04/25 03:13:34;;;;;;;6.95;2.83;;;;;;;;;;4972109;28;20066;-68
2022/04/25 03:16:00;;;;;;;5.90;2.20;;;;;;;;;;4970825;28;20134;-69
2022/04/25 03:18:27;;;;;;;3.47;2.00;;;;;;;;;;4972026;28;20134;-69
2022/04/25 03:20:53;;;;;;;3.55;2.20;;;;;;;;;;4972301;28;20073;-69
2022/04/25 03:23:20;;;;;;;3.03;1.95;;;;;;;;;;4971841;28;20139;-69
2022/04/25 03:25:46;;;;;;;2.88;1.85;;;;;;;;;;4971893;28;20042;-69
2022/04/25 03:28:13;;;;;;;3.50;2.10;;;;;;;;;;4971028;28;20047;-69
2022/04/25 03:30:39;;;;;;;3.50;2.20;;;;;;;;;;4971656;28;20499;-69
2022/04/25 03:33:05;;;;;;;3.45;1.88;;;;;;;;;;4971530;28;20043;-69
2022/04/25 03:35:32;;;;;;;5.90;2.10;;;;;;;;;;4971914;28;20043;-69
2022/04/25 03:37:59;;;;;;;3.85;2.13;;;;;;;;;;4971843;28;20464;-69
2022/04/25 03:40:25;;;;;;;3.10;1.92;;;;;;;;;;4971512;28;20404;-69
2022/04/25 03:42:53;;;;;;;3.83;2.05;;;;;;;;;;4971048;28;20050;-69
2022/04/25 03:45:19;;;;;;;4.80;2.22;;;;;;;;;;4971523;28;20050;-69
2022/04/25 03:47:46;;;;;;;3.30;1.80;;;;;;;;;;4971741;28;20050;-70
2022/04/25 03:50:13;;;;;;;2.88;1.88;;;;;;;;;;4970961;28;20078;-70
2022/04/25 03:52:40;;;;;;;3.70;1.80;;;;;;;;;;4971551;28;20163;-70
2022/04/25 03:57:56;;;;;;;3.33;2.17;;;;;;;;;;4970014;28;20100;-70
2022/04/25 04:00:22;;;;;;;3.28;1.98;;;;;;;;;;4971275;28;20230;-70
2022/04/25 04:02:48;;;;;;;4.93;2.13;;;;;;;;;;4971132;28;20039;-72
2022/04/25 04:05:14;;;;;;;11.02;2.35;;;;;;;;;;4970664;28;20054;-70
2022/04/25 04:07:41;;;;;;;8.45;2.17;;;;;;;;;;4953881;28;20125;-70
2022/04/25 04:10:07;;;;;;;4.40;2.03;;;;;;;;;;4971017;28;20047;-70
2022/04/25 04:12:34;;;;;;;3.80;1.98;;;;;;;;;;4969683;28;20527;-70
2022/04/25 04:15:02;;;;;;;4.25;2.05;;;;;;;;;;4970969;28;20054;-70
2022/04/25 04:17:28;;;;;;;6.10;2.17;;;;;;;;;;4970987;28;20058;-70
2022/04/25 04:19:54;;;;;;;5.90;3.15;;;;;;;;;;4970843;28;20098;-70
2022/04/25 04:22:25;;;;;;;3.22;1.90;;;;;;;;;;4970980;28;20050;-71
2022/04/25 04:24:51;;;;;;;4.15;2.20;;;;;;;;;;4969723;28;20043;-71
2022/04/25 04:27:17;;;;;;;5.22;2.08;;;;;;;;;;4969826;28;20051;-71
2022/04/25 04:29:44;;;;;;;3.72;2.13;;;;;;;;;;4971116;28;20050;-71
2022/04/25 04:32:12;;;;;;;4.53;1.98;;;;;;;;;;4970230;28;20141;-71
2022/04/25 04:34:38;;;;;;;5.50;2.08;;;;;;;;;;4970459;28;20069;-72
2022/04/25 04:37:04;;;;;;;3.38;1.88;;;;;;;;;;4970341;28;20050;-71
2022/04/25 04:39:34;;;;;;;5.07;2.03;;;;;;;;;;4970637;28;20054;-71
2022/04/25 04:42:00;;;;;;;3.83;1.92;;;;;;;;;;4970096;28;20046;-71
2022/04/25 04:44:26;;;;;;;3.40;1.80;;;;;;;;;;4970427;28;20051;-71
2022/04/25 04:46:52;;;;;;;4.30;2.10;;;;;;;;;;4970471;28;20046;-71
2022/04/25 04:49:18;;;;;;;4.47;2.08;;;;;;;;;;4970236;28;20069;-71
2022/04/25 04:51:44;;;;;;;5.95;2.13;;;;;;;;;;4970645;28;20101;-71
2022/04/25 04:54:10;;;;;;;4.95;2.20;;;;;;;;;;4970528;28;20054;-71
2022/04/25 04:56:36;;;;;;;6.75;2.47;;;;;;;;;;4969556;28;20082;-71
2022/04/25 04:59:03;;;;;;;4.85;2.20;;;;;;;;;;4970793;28;20050;-71
2022/04/25 05:01:29;;;;;;;3.60;1.98;;;;;;;;;;4970292;28;20047;-71
2022/04/25 05:03:58;;;;;;;3.80;2.00;;;;;;;;;;4969630;28;20039;-70
2022/04/25 05:06:27;;;;;;;3.28;2.03;;;;;;;;;;4969135;28;20054;-71
2022/04/25 05:08:54;;;;;;;5.05;2.10;;;;;;;;;;4953149;28;20043;-71
2022/04/25 05:11:20;;;;;;;3.80;2.35;;;;;;;;;;4970208;28;20084;-71
2022/04/25 05:13:46;;;;;;;3.60;2.20;;;;;;;;;;4969130;28;20116;-73
2022/04/25 05:16:12;;;;;;;3.47;1.70;;;;;;;;;;4969577;28;20050;-71
2022/04/25 05:18:38;;;;;;;3.90;2.15;;;;;;;;;;4968866;28;20053;-71
2022/04/25 05:21:05;;;;;;;4.47;2.05;;;;;;;;;;4970368;28;20052;-71
2022/04/25 05:23:31;;;;;;;4.07;1.95;;;;;;;;;;4969122;28;20043;-70
2022/04/25 05:25:58;;;;;;;4.05;2.13;;;;;;;;;;4970112;28;20187;-70
2022/04/25 05:28:32;;;;;;;5.03;2.88;;;;;;;;;;4969954;28;20055;-70
2022/04/25 05:30:58;;;;;;;4.78;2.70;;;;;;;;;;4969669;28;20046;-71
2022/04/25 05:33:24;;;;;;;2.90;1.60;;;;;;;;;;4970089;28;20453;-70
2022/04/25 05:35:51;;;;;;;3.53;1.95;;;;;;;;;;4969921;28;20047;-70
2022/04/25 05:38:18;;;;;;;5.30;2.28;;;;;;;;;;4967898;28;20055;-70
2022/04/25 05:40:44;;;;;;;3.53;1.77;;;;;;;;;;4969779;28;20055;-70
2022/04/25 05:43:11;;;;;;;3.92;2.10;;;;;;;;;;4969303;28;20078;-70
2022/04/25 05:45:37;;;;;;;2.90;1.85;;;;;;;;;;4968943;28;20047;-70
2022/04/25 05:51:58;;;;;;;3.83;1.98;;;;;;;;;;4953857;28;20074;-70
2022/04/25 05:53:37;;;;;;;3.40;1.90;;;;;;;;;;4950783;28;20492;-69
2022/04/25 05:56:03;;;;;;;4.72;2.10;;;;;;;;;;4949826;28;20057;-71
2022/04/25 05:58:29;;;;;;;3.85;1.90;;;;;;;;;;4950086;28;20051;-71
2022/04/25 06:00:55;;;;;;;3.50;1.77;;;;;;;;;;4950563;28;20109;-72
2022/04/25 06:03:21;;;;;;;3.33;2.05;;;;;;;;;;4950146;28;20047;-72
2022/04/25 06:05:47;;;;;;;4.88;2.20;;;;;;;;;;4963619;28;20090;-72
2022/04/25 06:08:13;;;;;;;3.03;1.77;;;;;;;;;;4969496;28;20047;-72
2022/04/25 06:10:40;;;;;;;3.20;1.77;;;;;;;;;;4969827;28;20054;-71
2022/04/25 06:13:07;;;;;;;3.15;1.85;;;;;;;;;;4969798;28;20047;-72
2022/04/25 06:15:33;;;;;;;13.27;2.10;;;;;;;;;;4969517;28;20057;-72
2022/04/25 06:17:59;;;;;;;5.65;1.90;;;;;;;;;;4968219;28;20046;-71
2022/04/25 06:20:30;;;;;;;5.85;1.90;;;;;;;;;;4969752;28;20130;-71
2022/04/25 06:23:02;;;;;;;5.55;2.47;;;;;;;;;;4969542;28;20097;-72
2022/04/25 06:25:29;;;;;;;3.80;1.83;;;;;;;;;;4969390;28;20062;-72
2022/04/25 06:27:57;;;;;;;2.97;1.85;;;;;;;;;;4969166;28;20580;-71
2022/04/25 06:30:24;;;;;;;6.43;2.03;;;;;;;;;;4969329;28;20047;-71
2022/04/25 06:32:53;;;;;;;4.35;1.67;;;;;;;;;;4969088;28;20047;-72
2022/04/25 06:35:20;;;;;;;5.40;3.00;;;;;;;;;;4968700;28;20182;-71
2022/04/25 06:37:46;;;;;;;4.15;1.92;;;;;;;;;;4969270;28;20534;-72
2022/04/25 06:40:12;;;;;;;5.63;1.92;;;;;;;;;;4969064;28;20097;-71
2022/04/25 06:42:38;;;;;;;3.45;1.80;;;;;;;;;;4969380;28;20043;-72
2022/04/25 06:45:05;;;;;;;3.50;1.90;;;;;;;;;;4968547;28;20054;-72
2022/04/25 06:47:31;;;;;;;4.70;1.92;;;;;;;;;;4968947;28;20050;-71
2022/04/25 06:49:57;;;;;;;4.95;2.00;;;;;;;;;;4968594;28;20051;-71
2022/04/25 06:52:23;;;;;;;4.25;1.98;;;;;;;;;;4972614;28;20043;-72
2022/04/25 06:54:49;;;;;;;3.60;2.05;;;;;;;;;;4972365;28;20061;-71
2022/04/25 06:57:15;;;;;;;8.55;3.20;;;;;;;;;;4971423;28;20427;-70
2022/04/25 06:59:43;;;;;;;9.80;4.00;;;;;;;;;;4972408;28;20058;-70
2022/04/25 07:02:10;;;;;;;8.20;4.13;;;;;;;;;;4972367;28;20059;-69
2022/04/25 07:04:36;;;;;;;10.35;4.63;;;;;;;;;;4972375;28;20058;-69
2022/04/25 07:07:02;;;;;;;8.07;4.05;;;;;;;;;;4970619;28;20047;-69
2022/04/25 07:09:28;;;;;;;7.97;4.10;;;;;;;;;;4972724;28;20046;-69
2022/04/25 07:11:54;;;;;;;6.50;4.20;;;;;;;;;;4972138;28;20910;-69
2022/04/25 07:14:24;;;;;;;9.32;4.80;;;;;;;;;;4972001;28;21495;-71
2022/04/25 07:16:54;;;;;;;6.78;3.80;;;;;;;;;;4972110;28;20043;-71
2022/04/25 07:19:20;;;;;;;6.53;3.75;;;;;;;;;;4971604;28;20108;-69
2022/04/25 07:30:01;;;;;;;8.95;3.80;;;;;;;;;;4971728;28;20575;-69
2022/04/25 07:32:28;;;;;;;8.27;3.50;;;;;;;;;;4970011;28;20515;-68
2022/04/25 07:34:54;;;;;;;7.00;3.55;;;;;;;;;;4971289;28;20043;-68
2022/04/25 07:37:22;;;;;;;6.60;2.92;;;;;;;;;;4967328;28;20054;-69
2022/04/25 07:39:48;;;;;;;7.22;3.42;;;;;;;;;;4971754;28;20050;-70
2022/04/25 07:42:18;;;;;;;8.15;3.20;;;;;;;;;;4960339;28;20053;-69
2022/04/25 07:44:47;;;;;;;8.75;3.67;;;;;;;;;;4952163;28;20045;-70
2022/04/25 07:47:14;;;;;;;6.65;3.55;;;;;;;;;;4952338;28;20413;-70
2022/04/25 07:49:40;;;;;;;7.28;3.30;;;;;;;;;;4951935;28;20043;-69
2022/04/25 07:52:06;;;;;;;8.80;4.00;;;;;;;;;;4951526;28;20450;-69
2022/04/25 07:54:33;;;;;;;8.27;3.33;;;;;;;;;;4952308;28;20083;-68
2022/04/25 07:56:59;;;;;;;7.10;2.78;;;;;;;;;;4951389;28;20058;-68
2022/04/25 07:59:26;;;;;;;9.50;2.47;;;;;;;;;;4951611;28;20047;-69
2022/04/25 08:01:52;;;;;;;6.28;2.55;;;;;;;;;;4951672;28;20059;-68
2022/04/25 08:04:18;;;;;;;7.43;2.88;;;;;;;;;;4952084;28;20047;-68
2022/04/25 08:06:44;;;;;;;7.50;2.83;;;;;;;;;;4950953;28;20110;-68
2022/04/25 08:09:10;;;;;;;8.25;3.10;;;;;;;;;;4951193;28;20043;-68
2022/04/25 08:11:36;;;;;;;6.97;2.45;;;;;;;;;;4950610;28;20051;-71
2022/04/25 08:19:37;;;;;;;7.40;3.00;;;;;;;;;;4959405;28;20367;-68
2022/04/25 08:22:07;;;;;;;7.68;3.50;;;;;;;;;;4951532;28;20509;-69
2022/04/25 08:24:33;;;;;;;7.22;3.22;;;;;;;;;;4945212;28;20683;-70
2022/04/25 08:26:59;;;;;;;6.07;3.08;;;;;;;;;;4951155;28;20051;-68
2022/04/25 08:29:25;;;;;;;5.65;2.97;;;;;;;;;;4949759;29;20058;-71
2022/04/25 08:31:51;;;;;;;5.68;3.03;;;;;;;;;;4952019;28;20043;-69
2022/04/25 08:34:17;;;;;;;6.68;3.25;;;;;;;;;;4956422;28;20138;-70
2022/04/25 08:36:43;;;;;;;7.40;3.22;;;;;;;;;;4957536;28;20058;-69
2022/04/25 08:39:10;;;;;;;6.57;3.03;;;;;;;;;;4964958;28;20050;-69
2022/04/25 08:41:36;;;;;;;9.05;3.88;;;;;;;;;;4970340;28;20413;-70
2022/04/25 08:44:04;;;;;;;8.70;3.15;;;;;;;;;;4970469;28;20366;-69
2022/04/25 08:46:32;;;;;;;7.63;2.97;;;;;;;;;;4970683;28;20050;-70
2022/04/25 08:49:00;;;;;;;7.13;3.03;;;;;;;;;;4970325;28;20057;-70
2022/04/25 08:51:27;;;;;;;6.15;3.08;;;;;;;;;;4970536;28;20282;-69
2022/04/25 08:53:54;;;;;;;6.93;3.25;;;;;;;;;;4968887;28;20074;-70
2022/04/25 08:56:23;;;;;;;6.75;3.38;;;;;;;;;;4980744;28;20356;-70
2022/04/25 08:58:49;;;;;;;7.60;3.80;;;;;;;;;;4951416;28;20051;-70
2022/04/25 09:01:16;;;;;;;7.50;3.03;;;;;;;;;;4949488;29;20088;-71
2022/04/25 09:03:43;;;;;;;5.93;2.90;;;;;;;;;;4967440;28;20161;-71
2022/04/25 09:06:09;;;;;;;6.05;3.20;;;;;;;;;;4969977;28;20419;-69
2022/04/25 09:08:35;;;;;;;6.18;3.30;;;;;;;;;;4984471;28;20130;-69
2022/04/25 09:13:46;;;;;;;6.22;3.15;;;;;;;;;;4969654;28;20050;-68
2022/04/25 09:16:13;;;;;;;6.97;2.97;;;;;;;;;;4969301;28;20039;-69
2022/04/25 09:18:39;;;;;;;4.95;3.00;;;;;;;;;;4968731;28;20039;-69
2022/04/25 09:21:06;;;;;;;5.93;3.00;;;;;;;;;;4967180;28;20053;-70
2022/04/25 09:23:33;;;;;;;5.38;2.80;;;;;;;;;;4965197;28;20050;-69
2022/04/25 09:26:24;;;;;;;6.55;2.65;;;;;;;;;;4968094;28;20035;-70
2022/04/25 09:28:53;;;;;;;5.70;3.03;;;;;;;;;;4967894;28;20580;-70
2022/04/25 09:31:20;;;;;;;5.93;3.08;;;;;;;;;;4955974;28;20788;-70
2022/04/25 09:33:46;;;;;;;5.95;2.55;;;;;;;;;;4966303;28;20397;-70
2022/04/25 09:36:13;;;;;;;4.68;2.50;;;;;;;;;;4967926;28;20042;-70
2022/04/25 09:38:40;;;;;;;5.03;2.80;;;;;;;;;;4967230;28;20046;-69
2022/04/25 09:41:10;;;;;;;3.97;2.45;;;;;;;;;;4965714;28;20165;-70
2022/04/25 09:43:38;;;;;;;6.28;2.60;;;;;;;;;;4968943;28;20035;-70
2022/04/25 09:46:07;;;;;;;6.72;2.65;;;;;;;;;;4967492;28;20055;-70
2022/04/25 09:48:34;;;;;;;5.82;2.55;;;;;;;;;;4967790;28;20400;-70
2022/04/25 09:51:04;;;;;;;6.63;2.60;;;;;;;;;;4967369;28;20082;-71
2022/04/25 09:53:47;;;;;;;5.28;2.75;;;;;;;;;;4965703;28;20077;-70
2022/04/25 09:56:19;;;;;;;4.63;2.05;;;;;;;;;;4967418;28;20118;-69
2022/04/25 09:58:59;;;;;;;6.07;2.70;;;;;;;;;;4967301;28;20604;-70
2022/04/25 10:01:26;;;;;;;5.00;2.47;;;;;;;;;;4966941;28;20069;-69
2022/04/25 10:03:52;;;;;;;7.38;2.67;;;;;;;;;;4967560;28;20054;-69
2022/04/25 10:06:20;;;;;;;23.73;4.13;;;;;;;;;;4967201;28;20065;-70
2022/04/25 10:08:46;;;;;;;8.45;2.50;;;;;;;;;;4967325;28;20564;-69
2022/04/25 10:11:13;;;;;;;14.52;3.00;;;;;;;;;;4969276;28;20047;-70
2022/04/25 10:13:39;;;;;;;10.13;2.75;;;;;;;;;;4968092;28;20385;-69
2022/04/25 10:16:05;;;;;;;12.02;2.28;;;;;;;;;;4969006;28;20053;-69
2022/04/25 10:18:31;;;;;;;6.82;1.75;;;;;;;;;;4969138;28;20049;-70
2022/04/25 10:20:58;;;;;;;6.75;2.38;;;;;;;;;;4967887;28;20457;-70
2022/04/25 10:23:25;;;;;;;9.40;2.25;;;;;;;;;;4969277;28;20047;-70
2022/04/25 10:25:54;;;;;;;6.80;2.38;;;;;;;;;;4971568;28;20050;-70
2022/04/25 10:28:24;;;;;;;8.65;1.88;;;;;;;;;;4966035;28;20527;-70
2022/04/25 10:30:51;;;;;;;6.15;2.00;;;;;;;;;;4967288;28;20046;-70
2022/04/25 10:33:21;;;;;;;6.68;1.88;;;;;;;;;;4966723;28;20089;-70
2022/04/25 10:35:49;;;;;;;7.20;2.00;;;;;;;;;;4987053;28;20078;-70
2022/04/25 10:44:17;;;;;;;7.07;2.03;;;;;;;;;;4972438;28;20055;-70
2022/04/25 10:47:02;;;;;;;4.57;1.83;;;;;;;;;;4971889;28;20054;-70
2022/04/25 10:49:31;;;;;;;3.05;1.60;;;;;;;;;;4972129;28;20074;-70
2022/04/25 10:51:57;;;;;;;2.78;1.58;;;;;;;;;;4972114;28;20043;-70
2022/04/25 10:54:27;;;;;;;6.40;2.00;;;;;;;;;;4972578;28;20043;-69
2022/04/25 10:57:09;;;;;;;4.70;1.83;;;;;;;;;;4952720;28;20055;-70
2022/04/25 10:59:37;;;;;;;5.80;1.50;;;;;;;;;;4971846;28;20050;-70
2022/04/25 11:02:20;;;;;;;7.87;2.87;;;;;;;;;;4971908;28;20405;-70
2022/04/25 11:04:46;;;;;;;5.15;1.77;;;;;;;;;;4972501;28;20054;-72
2022/04/25 11:07:21;;;;;;;13.15;2.40;;;;;;;;;;4970714;28;20039;-69
2022/04/25 11:09:47;;;;;;;6.80;2.10;;;;;;;;;;4971770;28;20050;-69
2022/04/25 11:12:13;;;;;;;4.63;1.77;;;;;;;;;;4971640;28;20057;-69
2022/04/25 11:14:56;;;;;;;6.43;2.28;;;;;;;;;;4967359;28;20409;-71
2022/04/25 11:17:22;;;;;;;13.23;3.85;;;;;;;;;;4966235;28;20058;-72
2022/04/25 11:19:51;;;;;;;7.10;2.10;;;;;;;;;;4967126;28;20098;-70
2022/04/25 11:22:29;;;;;;;6.50;1.60;;;;;;;;;;4956910;28;20054;-71
2022/04/25 11:24:55;;;;;;;5.80;2.00;;;;;;;;;;4971796;28;20042;-70
2022/04/25 11:27:22;;;;;;;6.25;1.80;;;;;;;;;;4971642;28;20497;-71
2022/04/25 11:30:21;;;;;;;7.72;1.85;;;;;;;;;;4970369;28;20145;-70
2022/04/25 11:32:50;;;;;;;7.40;1.90;;;;;;;;;;4950589;28;20047;-71
2022/04/25 11:35:16;;;;;;;4.75;1.80;;;;;;;;;;4978575;28;20473;-70
2022/04/25 11:37:42;;;;;;;4.25;1.80;;;;;;;;;;4971080;28;20047;-69
2022/04/25 11:40:09;;;;;;;5.28;1.90;;;;;;;;;;4971251;28;20089;-69
2022/04/25 11:42:36;;;;;;;6.18;1.70;;;;;;;;;;4970182;28;20043;-69
2022/04/25 11:45:03;;;;;;;4.85;1.90;;;;;;;;;;4969263;28;20385;-69
2022/04/25 11:47:30;;;;;;;6.28;1.67;;;;;;;;;;4969411;28;20050;-73
2022/04/25 11:49:57;;;;;;;5.68;1.73;;;;;;;;;;4969486;28;20062;-70
2022/04/25 11:52:24;;;;;;;4.15;1.50;;;;;;;;;;4968146;28;20070;-70
2022/04/25 11:54:50;;;;;;;4.57;1.70;;;;;;;;;;4969762;28;20074;-70
2022/04/25 11:57:16;;;;;;;5.88;1.80;;;;;;;;;;4969098;28;20089;-70
2022/04/25 11:59:42;;;;;;;3.55;1.73;;;;;;;;;;4969024;28;20145;-70
2022/04/25 12:02:08;;;;;;;7.13;1.73;;;;;;;;;;4968935;28;20560;-71
2022/04/25 12:04:34;;;;;;;5.85;2.25;;;;;;;;;;4964851;28;20066;-70
2022/04/25 12:15:34;;;;;;;7.47;1.50;;;;;;;;;;4951574;28;20098;-68
2022/04/25 12:18:23;;;;;;;3.45;1.70;;;;;;;;;;4948014;28;20493;-69
2022/04/25 12:20:49;;;;;;;;;;;;;;;;;;4946545;28;20055;-68
2022/04/25 12:23:31;;;;;;;2.50;1.45;;;;;;;;;;4951860;28;20372;-68
2022/04/25 12:36:22;;;;;;;5.47;1.88;;;;;;;;;;4999461;23;20066;-66
2022/04/25 12:38:59;;;;;;;2.55;1.55;;;;;;;;;;4950777;28;20142;-67
2022/04/25 12:41:30;;;;;;;3.25;1.42;;;;;;;;;;4950142;28;20050;-67
2022/04/25 12:43:57;;;;;;;2.67;1.20;;;;;;;;;;4952364;28;20046;-67
2022/04/25 12:46:37;;;;;;;4.85;1.75;;;;;;;;;;4949712;28;20043;-67
2022/04/25 12:49:06;;;;;;;3.85;1.52;;;;;;;;;;4948181;29;20401;-67
2022/04/25 12:51:36;;;;;;;3.63;1.35;;;;;;;;;;4949645;29;20043;-67
2022/04/25 12:54:03;;;;;;;3.72;1.30;;;;;;;;;;4949764;28;20500;-67
2022/04/25 12:56:31;;;;;;;3.00;1.60;;;;;;;;;;4949887;28;20424;-67
2022/04/25 12:58:57;;;;;;;3.22;1.55;;;;;;;;;;4949607;29;20043;-67
2022/04/25 13:01:30;;;;;;;4.63;1.40;;;;;;;;;;4949009;28;20047;-68
2022/04/25 13:04:19;;;;;;;3.00;1.58;;;;;;;;;;4949566;28;20094;-67
2022/04/25 13:06:45;;;;;;;2.58;1.23;;;;;;;;;;4946398;29;20061;-68
2022/04/25 13:09:13;;;;;;;3.95;1.38;;;;;;;;;;4947695;29;20067;-67
2022/04/25 13:11:39;;;;;;;2.10;1.27;;;;;;;;;;4949677;28;20087;-67
2022/04/25 13:14:06;;;;;;;2.80;1.50;;;;;;;;;;4948830;29;20169;-67
2022/04/25 13:16:32;;;;;;;3.72;1.65;;;;;;;;;;4949280;28;20035;-66
2022/04/25 13:18:59;;;;;;;2.92;1.40;;;;;;;;;;4964176;28;20043;-67
2022/04/25 13:21:25;;;;;;;4.55;1.58;;;;;;;;;;4950138;28;20106;-66
2022/04/25 13:23:52;;;;;;;3.83;1.63;;;;;;;;;;4964334;28;20047;-66
2022/04/25 13:26:18;;;;;;;2.92;1.30;;;;;;;;;;4948399;29;20049;-66
2022/04/25 13:28:44;;;;;;;4.05;1.58;;;;;;;;;;4951099;28;20453;-67
2022/04/25 13:31:10;;;;;;;3.40;1.38;;;;;;;;;;4949264;28;20090;-67
2022/04/25 13:33:36;;;;;;;2.85;1.60;;;;;;;;;;4950171;28;20062;-66
2022/04/25 13:36:05;;;;;;;3.10;1.50;;;;;;;;;;4962214;28;20051;-68
2022/04/25 13:38:31;;;;;;;4.70;1.88;;;;;;;;;;4970075;28;20047;-66
2022/04/25 13:40:57;;;;;;;2.83;1.58;;;;;;;;;;4970112;28;20113;-66
2022/04/25 13:43:25;;;;;;;4.32;1.75;;;;;;;;;;4970053;28;20082;-66
2022/04/25 13:45:53;;;;;;;2.92;1.42;;;;;;;;;;4969290;28;20059;-67
2022/04/25 13:48:19;;;;;;;3.05;1.40;;;;;;;;;;4969916;28;20086;-67
2022/04/25 13:50:45;;;;;;;4.28;1.67;;;;;;;;;;4970133;28;20047;-66
2022/04/25 13:53:11;;;;;;;3.63;1.67;;;;;;;;;;4970128;28;20489;-66
2022/04/25 13:55:38;;;;;;;4.32;1.30;;;;;;;;;;4969822;28;20531;-66
2022/04/25 13:58:05;;;;;;;3.90;1.42;;;;;;;;;;4965540;28;20043;-67
2022/04/25 14:00:31;;;;;;;2.60;1.48;;;;;;;;;;4953544;28;20142;-66
2022/04/25 14:03:08;;;;;;;2.80;1.30;;;;;;;;;;4954668;28;20477;-66
2022/04/25 14:05:37;;;;;;;2.78;1.27;;;;;;;;;;4954830;28;20089;-67
2022/04/25 14:08:03;;;;;;;;;;;;;;;;;;4954357;28;20043;-67
2022/04/25 14:10:29;;;;;;;3.75;1.40;;;;;;;;;;4961118;28;20732;-68
2022/04/25 14:12:55;;;;;;;3.00;1.30;;;;;;;;;;4973215;28;20073;-68
2022/04/25 14:15:22;;;;;;;2.55;1.33;;;;;;;;;;4973621;28;20054;-68
2022/04/25 14:17:48;;;;;;;2.90;1.45;;;;;;;;;;4970876;28;20187;-69
2022/04/25 14:20:14;;;;;;;2.38;1.13;;;;;;;;;;4972774;28;20517;-68
2022/04/25 14:22:41;;;;;;;2.97;1.42;;;;;;;;;;4968800;28;20398;-68
2022/04/25 14:25:08;;;;;;;2.13;1.33;;;;;;;;;;4972027;28;20061;-68
2022/04/25 14:27:37;;;;;;;6.10;1.85;;;;;;;;;;4973119;28;20034;-70
2022/04/25 14:30:04;;;;;;;5.40;1.20;;;;;;;;;;4986780;28;20583;-70
2022/04/25 14:32:30;;;;;;;3.25;1.27;;;;;;;;;;4972709;28;20050;-70
2022/04/25 14:34:56;;;;;;;2.65;1.02;;;;;;;;;;4973377;28;20049;-70
2022/04/25 14:37:22;;;;;;;3.00;0.93;;;;;;;;;;4967933;28;20134;-71
2022/04/25 14:39:48;;;;;;;3.38;1.40;;;;;;;;;;4972169;28;20046;-70
2022/04/25 14:42:14;;;;;;;4.45;1.20;;;;;;;;;;4972915;28;20046;-70
2022/04/25 14:44:41;;;;;;;3.25;1.25;;;;;;;;;;4972549;28;20053;-70
2022/04/25 14:47:08;;;;;;;7.70;2.03;;;;;;;;;;4973212;28;20047;-70
2022/04/25 14:55:04;;;;;;;2.08;1.30;;;;;;;;;;4972584;28;20047;-70
2022/04/25 14:57:30;;;;;;;2.92;1.30;;;;;;;;;;4953707;28;20090;-70
2022/04/25 14:59:56;;;;;;;3.10;1.00;;;;;;;;;;4964650;28;20058;-70
2022/04/25 15:02:22;;;;;;;2.15;1.05;;;;;;;;;;4973198;28;20270;-71
2022/04/25 15:04:48;;;;;;;4.00;1.50;;;;;;;;;;4972825;28;20038;-70
2022/04/25 15:07:14;;;;;;;2.53;1.20;;;;;;;;;;4972883;28;20047;-70
2022/04/25 15:09:42;;;;;;;2.53;1.35;;;;;;;;;;4972127;28;20120;-70
2022/04/25 15:12:09;;;;;;;3.35;1.42;;;;;;;;;;4971778;28;20055;-70
2022/04/25 15:14:35;;;;;;;2.67;1.52;;;;;;;;;;4972399;28;20105;-70
2022/04/25 15:17:01;;;;;;;4.82;1.27;;;;;;;;;;4972334;28;20500;-70
2022/04/25 15:19:28;;;;;;;9.25;1.58;;;;;;;;;;4972620;28;20142;-71
2022/04/25 15:21:58;;;;;;;2.03;1.17;;;;;;;;;;4972141;28;20140;-70
2022/04/25 15:24:24;;;;;;;3.38;1.25;;;;;;;;;;4971331;28;20141;-69
2022/04/25 15:26:50;;;;;;;2.75;1.50;;;;;;;;;;4972580;28;20579;-69
2022/04/25 15:29:16;;;;;;;4.78;1.20;;;;;;;;;;4972317;28;20394;-69
2022/04/25 15:31:42;;;;;;;2.20;1.27;;;;;;;;;;4971746;28;20053;-69
2022/04/25 15:34:08;;;;;;;2.45;1.30;;;;;;;;;;4972464;28;20102;-70
2022/04/25 15:36:34;;;;;;;3.08;1.52;;;;;;;;;;4971930;28;20065;-69
2022/04/25 15:39:00;;;;;;;2.90;1.30;;;;;;;;;;4972261;28;20527;-70
2022/04/25 15:41:27;;;;;;;3.03;1.48;;;;;;;;;;4972109;28;20527;-70